sensor_id;sensor_type;location;lat;lon;timestamp;P1;P2;P0
60374;PMS5003;70244;48.792;9.172;2023-10-19T04:16:38;120;105;
60374;PMS5003;70244;48.792;9.172;2023-10-19T04:19:08;114;104;
60374;PMS5003;70244;48.792;9.172;2023-10-19T04:21:16;109;92;
60374;PMS5003;70244;48.792;9.172;2023-10-19T04:23:46;115;105;
60374;PMS5003;70244;48.792;9.172;2023-10-19T04:26:16;112;103;
60374;PMS5003;70244;48.792;9.172;2023-10-19T04:28:46;113;105;
60374;PMS5003;70244;48.792;9.172;2023-10-19T04:31:17;110;102;
60374;PMS5003;70244;48.792;9.172;2023-10-19T04:33:47;119;111;
60374;PMS5003;70244;48.792;9.172;2023-10-19T04:36:18;109;98;
60374;PMS5003;70244;48.792;9.172;2023-10-19T04:38:48;109;96;
60374;PMS5003;70244;48.792;9.172;2023-10-19T04:41:19;113;100;
60374;PMS5003;70244;48.792;9.172;2023-10-19T04:43:49;107;100;
60374;PMS5003;70244;48.792;9.172;2023-10-19T04:46:20;111;102;
60374;PMS5003;70244;48.792;9.172;2023-10-19T04:48:50;108;96;
60374;PMS5003;70244;48.792;9.172;2023-10-19T04:51:21;118;106;
60374;PMS5003;70244;48.792;9.172;2023-10-19T04:53:51;107;98;
60374;PMS5003;70244;48.792;9.172;2023-10-19T04:56:22;109;98;
60374;PMS5003;70244;48.792;9.172;2023-10-19T04:58:53;106;99;
60374;PMS5003;70244;48.792;9.172;2023-10-19T05:01:24;107;95;
60374;PMS5003;70244;48.792;9.172;2023-10-19T05:03:55;104;96;
60374;PMS5003;70244;48.792;9.172;2023-10-19T05:06:25;99;91;
60374;PMS5003;70244;48.792;9.172;2023-10-19T05:08:56;105;97;
60374;PMS5003;70244;48.792;9.172;2023-10-19T05:11:27;96;82;
60374;PMS5003;70244;48.792;9.172;2023-10-19T05:13:57;96;88;
60374;PMS5003;70244;48.792;9.172;2023-10-19T05:16:28;95;88;
60374;PMS5003;70244;48.792;9.172;2023-10-19T05:18:58;92;85;
60374;PMS5003;70244;48.792;9.172;2023-10-19T05:21:28;95;83;
60374;PMS5003;70244;48.792;9.172;2023-10-19T05:23:58;87;80;
60374;PMS5003;70244;48.792;9.172;2023-10-19T05:26:28;76;72;
60374;PMS5003;70244;48.792;9.172;2023-10-19T05:28:59;70;63;
60374;PMS5003;70244;48.792;9.172;2023-10-19T05:31:30;73;67;
60374;PMS5003;70244;48.792;9.172;2023-10-19T05:34:00;60;56;
60374;PMS5003;70244;48.792;9.172;2023-10-19T05:36:31;62;59;
60374;PMS5003;70244;48.792;9.172;2023-10-19T05:39:01;65;57;
60374;PMS5003;70244;48.792;9.172;2023-10-19T05:41:31;64;61;
60374;PMS5003;70244;48.792;9.172;2023-10-19T05:44:02;63;55;
60374;PMS5003;70244;48.792;9.172;2023-10-19T05:46:32;58;54;
60374;PMS5003;70244;48.792;9.172;2023-10-19T05:49:02;62;58;
60374;PMS5003;70244;48.792;9.172;2023-10-19T05:51:32;53;49;
60374;PMS5003;70244;48.792;9.172;2023-10-19T05:54:03;55;50;
60374;PMS5003;70244;48.792;9.172;2023-10-19T05:56:33;61;53;
60374;PMS5003;70244;48.792;9.172;2023-10-19T05:59:03;61;55;
60374;PMS5003;70244;48.792;9.172;2023-10-19T06:01:34;61;54;
60374;PMS5003;70244;48.792;9.172;2023-10-19T06:04:04;58;54;
60374;PMS5003;70244;48.792;9.172;2023-10-19T06:06:35;51;50;
60374;PMS5003;70244;48.792;9.172;2023-10-19T06:09:05;52;50;
60374;PMS5003;70244;48.792;9.172;2023-10-19T06:11:40;56;50;
60374;PMS5003;70244;48.792;9.172;2023-10-19T06:14:06;53;48;
60374;PMS5003;70244;48.792;9.172;2023-10-19T06:16:37;47;45;
60374;PMS5003;70244;48.792;9.172;2023-10-19T06:19:07;56;49;
60374;PMS5003;70244;48.792;9.172;2023-10-19T06:21:37;52;46;
60374;PMS5003;70244;48.792;9.172;2023-10-19T06:24:07;55;53;
60374;PMS5003;70244;48.792;9.172;2023-10-19T06:26:37;56;50;
60374;PMS5003;70244;48.792;9.172;2023-10-19T06:29:08;50;49;
60374;PMS5003;70244;48.792;9.172;2023-10-19T06:31:38;57;54;
60374;PMS5003;70244;48.792;9.172;2023-10-19T06:34:08;45;40;
60374;PMS5003;70244;48.792;9.172;2023-10-19T06:36:39;56;54;
60374;PMS5003;70244;48.792;9.172;2023-10-19T06:39:09;55;47;
60374;PMS5003;70244;48.792;9.172;2023-10-19T06:41:40;52;47;
60374;PMS5003;70244;48.792;9.172;2023-10-19T06:44:10;55;52;
60374;PMS5003;70244;48.792;9.172;2023-10-19T06:46:41;56;50;
60374;PMS5003;70244;48.792;9.172;2023-10-19T06:49:11;54;49;
60374;PMS5003;70244;48.792;9.172;2023-10-19T06:51:42;54;49;
60374;PMS5003;70244;48.792;9.172;2023-10-19T06:54:12;49;46;
60374;PMS5003;70244;48.792;9.172;2023-10-19T06:56:42;49;45;
60374;PMS5003;70244;48.792;9.172;2023-10-19T06:59:13;53;49;
60374;PMS5003;70244;48.792;9.172;2023-10-19T07:01:44;49;43;
60374;PMS5003;70244;48.792;9.172;2023-10-19T07:04:15;50;47;
60374;PMS5003;70244;48.792;9.172;2023-10-19T07:06:45;53;47;
60374;PMS5003;70244;48.792;9.172;2023-10-19T07:09:15;50;48;
60374;PMS5003;70244;48.792;9.172;2023-10-19T07:11:45;49;45;
60374;PMS5003;70244;48.792;9.172;2023-10-19T07:14:16;48;44;
60374;PMS5003;70244;48.792;9.172;2023-10-19T07:16:46;44;41;
60374;PMS5003;70244;48.792;9.172;2023-10-19T07:19:17;49;43;
60374;PMS5003;70244;48.792;9.172;2023-10-19T07:21:47;52;48;
60374;PMS5003;70244;48.792;9.172;2023-10-19T07:24:18;50;48;
60374;PMS5003;70244;48.792;9.172;2023-10-19T07:26:48;50;46;
60374;PMS5003;70244;48.792;9.172;2023-10-19T07:29:19;52;45;
60374;PMS5003;70244;48.792;9.172;2023-10-19T07:31:49;45;44;
60374;PMS5003;70244;48.792;9.172;2023-10-19T07:34:19;43;42;
60374;PMS5003;70244;48.792;9.172;2023-10-19T07:36:50;47;43;
60374;PMS5003;70244;48.792;9.172;2023-10-19T07:39:20;49;46;
60374;PMS5003;70244;48.792;9.172;2023-10-19T07:41:51;44;41;
60374;PMS5003;70244;48.792;9.172;2023-10-19T07:44:21;42;40;
60374;PMS5003;70244;48.792;9.172;2023-10-19T07:46:51;45;43;
60374;PMS5003;70244;48.792;9.172;2023-10-19T07:49:21;46;41;
60374;PMS5003;70244;48.792;9.172;2023-10-19T07:51:52;47;45;
60374;PMS5003;70244;48.792;9.172;2023-10-19T07:54:22;52;43;
60374;PMS5003;70244;48.792;9.172;2023-10-19T07:56:54;42;39;
60374;PMS5003;70244;48.792;9.172;2023-10-19T07:59:23;46;43;
60374;PMS5003;70244;48.792;9.172;2023-10-19T08:01:53;39;39;
60374;PMS5003;70244;48.792;9.172;2023-10-19T08:04:23;44;42;
60374;PMS5003;70244;48.792;9.172;2023-10-19T08:06:54;40;40;
60374;PMS5003;70244;48.792;9.172;2023-10-19T08:09:24;48;45;
60374;PMS5003;70244;48.792;9.172;2023-10-19T08:11:55;43;39;
60374;PMS5003;70244;48.792;9.172;2023-10-19T08:14:26;42;40;
60374;PMS5003;70244;48.792;9.172;2023-10-19T08:16:56;51;41;
60374;PMS5003;70244;48.792;9.172;2023-10-19T08:19:27;43;39;
60374;PMS5003;70244;48.792;9.172;2023-10-19T08:21:57;45;39;
60374;PMS5003;70244;48.792;9.172;2023-10-19T08:24:27;46;43;
60374;PMS5003;70244;48.792;9.172;2023-10-19T08:26:58;49;41;
60374;PMS5003;70244;48.792;9.172;2023-10-19T08:29:28;43;40;
60374;PMS5003;70244;48.792;9.172;2023-10-19T08:31:59;44;40;
60374;PMS5003;70244;48.792;9.172;2023-10-19T08:34:29;44;40;
60374;PMS5003;70244;48.792;9.172;2023-10-19T08:37:00;42;38;
60374;PMS5003;70244;48.792;9.172;2023-10-19T08:39:31;39;38;
60374;PMS5003;70244;48.792;9.172;2023-10-19T08:42:00;47;39;
60374;PMS5003;70244;48.792;9.172;2023-10-19T08:44:31;36;35;
60374;PMS5003;70244;48.792;9.172;2023-10-19T08:47:02;37;34;
60374;PMS5003;70244;48.792;9.172;2023-10-19T08:49:32;45;41;
60374;PMS5003;70244;48.792;9.172;2023-10-19T08:52:03;40;38;
60374;PMS5003;70244;48.792;9.172;2023-10-19T08:54:33;45;43;
60374;PMS5003;70244;48.792;9.172;2023-10-19T08:57:03;43;38;
60374;PMS5003;70244;48.792;9.172;2023-10-19T08:59:33;39;36;
60374;PMS5003;70244;48.792;9.172;2023-10-19T09:02:03;46;40;
60374;PMS5003;70244;48.792;9.172;2023-10-19T09:07:04;38;37;
60374;PMS5003;70244;48.792;9.172;2023-10-19T09:09:35;48;43;
60374;PMS5003;70244;48.792;9.172;2023-10-19T09:12:06;40;39;
60374;PMS5003;70244;48.792;9.172;2023-10-19T09:14:36;37;36;
60374;PMS5003;70244;48.792;9.172;2023-10-19T09:17:07;45;40;
60374;PMS5003;70244;48.792;9.172;2023-10-19T09:19:38;35;35;
60374;PMS5003;70244;48.792;9.172;2023-10-19T09:22:09;42;39;
60374;PMS5003;70244;48.792;9.172;2023-10-19T09:24:39;42;35;
60374;PMS5003;70244;48.792;9.172;2023-10-19T09:27:09;38;32;
60374;PMS5003;70244;48.792;9.172;2023-10-19T09:29:39;34;32;
60374;PMS5003;70244;48.792;9.172;2023-10-19T09:32:10;36;34;
60374;PMS5003;70244;48.792;9.172;2023-10-19T09:34:40;40;36;
60374;PMS5003;70244;48.792;9.172;2023-10-19T09:37:11;31;31;
60374;PMS5003;70244;48.792;9.172;2023-10-19T09:39:40;35;33;
60374;PMS5003;70244;48.792;9.172;2023-10-19T09:42:11;40;37;
60374;PMS5003;70244;48.792;9.172;2023-10-19T09:44:42;36;34;
60374;PMS5003;70244;48.792;9.172;2023-10-19T09:47:13;40;36;
60374;PMS5003;70244;48.792;9.172;2023-10-19T09:49:42;35;31;
60374;PMS5003;70244;48.792;9.172;2023-10-19T09:52:12;35;33;
60374;PMS5003;70244;48.792;9.172;2023-10-19T09:54:47;35;32;
60374;PMS5003;70244;48.792;9.172;2023-10-19T09:57:14;33;33;
60374;PMS5003;70244;48.792;9.172;2023-10-19T09:59:45;39;37;
60374;PMS5003;70244;48.792;9.172;2023-10-19T10:02:15;34;30;
60374;PMS5003;70244;48.792;9.172;2023-10-19T10:04:45;31;30;
60374;PMS5003;70244;48.792;9.172;2023-10-19T10:07:16;38;34;
60374;PMS5003;70244;48.792;9.172;2023-10-19T10:09:46;33;32;
60374;PMS5003;70244;48.792;9.172;2023-10-19T10:12:18;34;29;
60374;PMS5003;70244;48.792;9.172;2023-10-19T10:17:17;32;29;
60374;PMS5003;70244;48.792;9.172;2023-10-19T10:19:48;33;32;
60374;PMS5003;70244;48.792;9.172;2023-10-19T10:22:19;35;31;
60374;PMS5003;70244;48.792;9.172;2023-10-19T10:24:53;28;27;
60374;PMS5003;70244;48.792;9.172;2023-10-19T10:27:20;33;30;
60374;PMS5003;70244;48.792;9.172;2023-10-19T10:29:53;35;31;
60374;PMS5003;70244;48.792;9.172;2023-10-19T10:34:50;31;30;
60374;PMS5003;70244;48.792;9.172;2023-10-19T10:37:20;27;26;
60374;PMS5003;70244;48.792;9.172;2023-10-19T10:39:52;30;27;
60374;PMS5003;70244;48.792;9.172;2023-10-19T10:42:21;34;31;
60374;PMS5003;70244;48.792;9.172;2023-10-19T10:44:52;34;33;
60374;PMS5003;70244;48.792;9.172;2023-10-19T10:47:23;36;33;
60374;PMS5003;70244;48.792;9.172;2023-10-19T10:49:53;23;23;
60374;PMS5003;70244;48.792;9.172;2023-10-19T10:52:24;28;28;
60374;PMS5003;70244;48.792;9.172;2023-10-19T10:54:54;29;29;
60374;PMS5003;70244;48.792;9.172;2023-10-19T11:02:25;29;27;
60374;PMS5003;70244;48.792;9.172;2023-10-19T11:04:56;26;26;
60374;PMS5003;70244;48.792;9.172;2023-10-19T11:07:26;30;27;
60374;PMS5003;70244;48.792;9.172;2023-10-19T11:09:57;31;29;
60374;PMS5003;70244;48.792;9.172;2023-10-19T11:12:27;32;32;
60374;PMS5003;70244;48.792;9.172;2023-10-19T11:14:58;29;27;
60374;PMS5003;70244;48.792;9.172;2023-10-19T11:17:28;34;32;
60374;PMS5003;70244;48.792;9.172;2023-10-19T11:19:58;30;27;
60374;PMS5003;70244;48.792;9.172;2023-10-19T11:22:28;30;27;
60374;PMS5003;70244;48.792;9.172;2023-10-19T11:27:30;26;25;
60374;PMS5003;70244;48.792;9.172;2023-10-19T11:30:00;32;30;
60374;PMS5003;70244;48.792;9.172;2023-10-19T11:35:01;31;26;
60374;PMS5003;70244;48.792;9.172;2023-10-19T11:40:02;29;28;
60374;PMS5003;70244;48.792;9.172;2023-10-19T11:42:33;30;26;
60374;PMS5003;70244;48.792;9.172;2023-10-19T11:45:04;31;27;
60374;PMS5003;70244;48.792;9.172;2023-10-19T11:47:34;28;26;
60374;PMS5003;70244;48.792;9.172;2023-10-19T11:50:04;26;25;
60374;PMS5003;70244;48.792;9.172;2023-10-19T11:52:34;28;26;
60374;PMS5003;70244;48.792;9.172;2023-10-19T11:55:05;29;26;
60374;PMS5003;70244;48.792;9.172;2023-10-19T11:57:35;32;29;
60374;PMS5003;70244;48.792;9.172;2023-10-19T12:00:05;29;26;
60374;PMS5003;70244;48.792;9.172;2023-10-19T12:02:36;29;28;
60374;PMS5003;70244;48.792;9.172;2023-10-19T12:05:07;25;24;
60374;PMS5003;70244;48.792;9.172;2023-10-19T12:07:36;26;26;
60374;PMS5003;70244;48.792;9.172;2023-10-19T12:10:08;26;25;
60374;PMS5003;70244;48.792;9.172;2023-10-19T12:12:37;28;28;
60374;PMS5003;70244;48.792;9.172;2023-10-19T12:15:08;28;27;
60374;PMS5003;70244;48.792;9.172;2023-10-19T12:17:38;25;25;
60374;PMS5003;70244;48.792;9.172;2023-10-19T12:20:09;26;26;
60374;PMS5003;70244;48.792;9.172;2023-10-19T12:22:39;30;26;
60374;PMS5003;70244;48.792;9.172;2023-10-19T12:25:10;25;25;
60374;PMS5003;70244;48.792;9.172;2023-10-19T12:27:41;31;26;
60374;PMS5003;70244;48.792;9.172;2023-10-19T12:30:11;24;23;
60374;PMS5003;70244;48.792;9.172;2023-10-19T12:32:41;25;25;
60374;PMS5003;70244;48.792;9.172;2023-10-19T12:35:12;27;26;
60374;PMS5003;70244;48.792;9.172;2023-10-19T12:37:42;30;27;
60374;PMS5003;70244;48.792;9.172;2023-10-19T12:40:13;29;26;
60374;PMS5003;70244;48.792;9.172;2023-10-19T12:42:43;28;26;
60374;PMS5003;70244;48.792;9.172;2023-10-19T12:45:14;30;27;
60374;PMS5003;70244;48.792;9.172;2023-10-19T12:47:44;28;24;
60374;PMS5003;70244;48.792;9.172;2023-10-19T12:50:15;25;23;
60374;PMS5003;70244;48.792;9.172;2023-10-19T12:52:45;26;24;
60374;PMS5003;70244;48.792;9.172;2023-10-19T12:55:16;24;22;
60374;PMS5003;70244;48.792;9.172;2023-10-19T12:57:46;22;22;
60374;PMS5003;70244;48.792;9.172;2023-10-19T13:00:16;24;23;
60374;PMS5003;70244;48.792;9.172;2023-10-19T13:02:46;25;24;
60374;PMS5003;70244;48.792;9.172;2023-10-19T13:05:17;25;24;
60374;PMS5003;70244;48.792;9.172;2023-10-19T13:07:48;29;29;
60374;PMS5003;70244;48.792;9.172;2023-10-19T13:10:18;26;26;
60374;PMS5003;70244;48.792;9.172;2023-10-19T13:12:48;26;25;
60374;PMS5003;70244;48.792;9.172;2023-10-19T13:15:19;23;22;
60374;PMS5003;70244;48.792;9.172;2023-10-19T13:17:49;25;24;
60374;PMS5003;70244;48.792;9.172;2023-10-19T13:20:20;22;22;
60374;PMS5003;70244;48.792;9.172;2023-10-19T13:22:50;28;27;
60374;PMS5003;70244;48.792;9.172;2023-10-19T13:25:21;25;24;
60374;PMS5003;70244;48.792;9.172;2023-10-19T13:27:51;25;24;
60374;PMS5003;70244;48.792;9.172;2023-10-19T13:30:22;25;22;
60374;PMS5003;70244;48.792;9.172;2023-10-19T13:32:52;27;23;
60374;PMS5003;70244;48.792;9.172;2023-10-19T13:35:23;24;23;
60374;PMS5003;70244;48.792;9.172;2023-10-19T13:37:54;23;23;
60374;PMS5003;70244;48.792;9.172;2023-10-19T13:40:26;25;22;
60374;PMS5003;70244;48.792;9.172;2023-10-19T13:42:55;23;23;
60374;PMS5003;70244;48.792;9.172;2023-10-19T13:45:25;23;20;
60374;PMS5003;70244;48.792;9.172;2023-10-19T13:47:56;23;22;
60374;PMS5003;70244;48.792;9.172;2023-10-19T13:50:26;29;27;
60374;PMS5003;70244;48.792;9.172;2023-10-19T13:52:57;26;24;
60374;PMS5003;70244;48.792;9.172;2023-10-19T13:55:27;24;21;
60374;PMS5003;70244;48.792;9.172;2023-10-19T13:57:57;28;24;
60374;PMS5003;70244;48.792;9.172;2023-10-19T14:00:28;24;24;
60374;PMS5003;70244;48.792;9.172;2023-10-19T14:02:58;28;22;
60374;PMS5003;70244;48.792;9.172;2023-10-19T14:05:29;22;22;
60374;PMS5003;70244;48.792;9.172;2023-10-19T14:07:59;26;25;
60374;PMS5003;70244;48.792;9.172;2023-10-19T14:10:30;21;21;
60374;PMS5003;70244;48.792;9.172;2023-10-19T14:13:00;23;22;
60374;PMS5003;70244;48.792;9.172;2023-10-19T14:15:31;21;21;
60374;PMS5003;70244;48.792;9.172;2023-10-19T14:18:02;22;20;
60374;PMS5003;70244;48.792;9.172;2023-10-19T14:20:32;23;22;
60374;PMS5003;70244;48.792;9.172;2023-10-19T14:23:02;24;21;
60374;PMS5003;70244;48.792;9.172;2023-10-19T14:25:36;25;22;
60374;PMS5003;70244;48.792;9.172;2023-10-19T14:28:03;21;21;
60374;PMS5003;70244;48.792;9.172;2023-10-19T14:30:33;24;21;
60374;PMS5003;70244;48.792;9.172;2023-10-19T14:33:04;20;19;
60374;PMS5003;70244;48.792;9.172;2023-10-19T14:35:34;22;22;
60374;PMS5003;70244;48.792;9.172;2023-10-19T14:38:05;20;20;
60374;PMS5003;70244;48.792;9.172;2023-10-19T14:40:36;26;25;
60374;PMS5003;70244;48.792;9.172;2023-10-19T14:43:06;22;19;
60374;PMS5003;70244;48.792;9.172;2023-10-19T14:45:36;23;20;
60374;PMS5003;70244;48.792;9.172;2023-10-19T14:48:07;20;19;
60374;PMS5003;70244;48.792;9.172;2023-10-19T14:50:38;25;22;
60374;PMS5003;70244;48.792;9.172;2023-10-19T14:53:08;24;20;
60374;PMS5003;70244;48.792;9.172;2023-10-19T14:55:38;26;22;
60374;PMS5003;70244;48.792;9.172;2023-10-19T14:58:09;22;21;
60374;PMS5003;70244;48.792;9.172;2023-10-19T15:00:39;22;22;
60374;PMS5003;70244;48.792;9.172;2023-10-19T15:03:10;23;21;
60374;PMS5003;70244;48.792;9.172;2023-10-19T15:05:41;16;16;
60374;PMS5003;70244;48.792;9.172;2023-10-19T15:08:11;23;22;
60374;PMS5003;70244;48.792;9.172;2023-10-19T15:10:42;21;20;
60374;PMS5003;70244;48.792;9.172;2023-10-19T15:13:12;21;19;
60374;PMS5003;70244;48.792;9.172;2023-10-19T15:15:43;20;20;
60374;PMS5003;70244;48.792;9.172;2023-10-19T15:18:13;24;21;
60374;PMS5003;70244;48.792;9.172;2023-10-19T15:20:43;20;20;
60374;PMS5003;70244;48.792;9.172;2023-10-19T15:23:13;19;19;
60374;PMS5003;70244;48.792;9.172;2023-10-19T15:25:44;19;18;
60374;PMS5003;70244;48.792;9.172;2023-10-19T15:28:14;24;23;
60374;PMS5003;70244;48.792;9.172;2023-10-19T15:30:45;24;24;
60374;PMS5003;70244;48.792;9.172;2023-10-19T15:33:15;22;21;
60374;PMS5003;70244;48.792;9.172;2023-10-19T15:35:47;23;20;
60374;PMS5003;70244;48.792;9.172;2023-10-19T15:38:16;20;19;
60374;PMS5003;70244;48.792;9.172;2023-10-19T15:40:46;18;17;
60374;PMS5003;70244;48.792;9.172;2023-10-19T15:43:17;20;17;
60374;PMS5003;70244;48.792;9.172;2023-10-19T15:45:47;22;20;
60374;PMS5003;70244;48.792;9.172;2023-10-19T15:48:17;17;15;
60374;PMS5003;70244;48.792;9.172;2023-10-19T15:50:48;18;18;
60374;PMS5003;70244;48.792;9.172;2023-10-19T15:53:19;16;15;
60374;PMS5003;70244;48.792;9.172;2023-10-19T15:55:49;75;74;
60374;PMS5003;70244;48.792;9.172;2023-10-19T15:58:20;62;59;
60374;PMS5003;70244;48.792;9.172;2023-10-19T16:00:51;251;228;
60374;PMS5003;70244;48.792;9.172;2023-10-19T16:03:21;67;64;
60374;PMS5003;70244;48.792;9.172;2023-10-19T16:05:51;62;61;
60374;PMS5003;70244;48.792;9.172;2023-10-19T16:08:21;78;74;
60374;PMS5003;70244;48.792;9.172;2023-10-19T16:10:51;91;83;
60374;PMS5003;70244;48.792;9.172;2023-10-19T16:13:22;71;66;
60374;PMS5003;70244;48.792;9.172;2023-10-19T16:15:52;70;65;
60374;PMS5003;70244;48.792;9.172;2023-10-19T16:18:23;61;59;
60374;PMS5003;70244;48.792;9.172;2023-10-19T16:20:53;71;62;
60374;PMS5003;70244;48.792;9.172;2023-10-19T16:23:23;71;68;
60374;PMS5003;70244;48.792;9.172;2023-10-19T16:25:57;65;62;
60374;PMS5003;70244;48.792;9.172;2023-10-19T16:28:24;64;59;
60374;PMS5003;70244;48.792;9.172;2023-10-19T16:31:00;59;55;
60374;PMS5003;70244;48.792;9.172;2023-10-19T16:33:25;57;55;
60374;PMS5003;70244;48.792;9.172;2023-10-19T16:35:56;59;55;
60374;PMS5003;70244;48.792;9.172;2023-10-19T16:38:27;52;51;
60374;PMS5003;70244;48.792;9.172;2023-10-19T16:40:58;61;51;
60374;PMS5003;70244;48.792;9.172;2023-10-19T16:43:28;61;57;
60374;PMS5003;70244;48.792;9.172;2023-10-19T16:45:58;50;48;
60374;PMS5003;70244;48.792;9.172;2023-10-19T16:48:28;55;52;
60374;PMS5003;70244;48.792;9.172;2023-10-19T16:51:00;50;46;
60374;PMS5003;70244;48.792;9.172;2023-10-19T16:53:29;49;49;
60374;PMS5003;70244;48.792;9.172;2023-10-19T16:56:00;50;49;
60374;PMS5003;70244;48.792;9.172;2023-10-19T16:58:30;50;45;
60374;PMS5003;70244;48.792;9.172;2023-10-19T17:01:04;54;43;
60374;PMS5003;70244;48.792;9.172;2023-10-19T17:03:31;51;48;
60374;PMS5003;70244;48.792;9.172;2023-10-19T17:06:01;46;42;
60374;PMS5003;70244;48.792;9.172;2023-10-19T17:08:31;49;47;
60374;PMS5003;70244;48.792;9.172;2023-10-19T17:11:02;53;49;
60374;PMS5003;70244;48.792;9.172;2023-10-19T17:13:33;45;45;
60374;PMS5003;70244;48.792;9.172;2023-10-19T17:16:03;46;41;
60374;PMS5003;70244;48.792;9.172;2023-10-19T17:18:34;42;41;
60374;PMS5003;70244;48.792;9.172;2023-10-19T17:21:04;52;44;
60374;PMS5003;70244;48.792;9.172;2023-10-19T17:23:35;46;46;
60374;PMS5003;70244;48.792;9.172;2023-10-19T17:26:11;44;43;
60374;PMS5003;70244;48.792;9.172;2023-10-19T17:28:36;41;40;
60374;PMS5003;70244;48.792;9.172;2023-10-19T17:31:06;55;47;
60374;PMS5003;70244;48.792;9.172;2023-10-19T17:33:37;47;39;
60374;PMS5003;70244;48.792;9.172;2023-10-19T17:36:07;45;40;
60374;PMS5003;70244;48.792;9.172;2023-10-19T17:38:37;39;35;
60374;PMS5003;70244;48.792;9.172;2023-10-19T17:41:08;39;39;
60374;PMS5003;70244;48.792;9.172;2023-10-19T17:43:38;39;37;
60374;PMS5003;70244;48.792;9.172;2023-10-19T17:46:09;43;38;
60374;PMS5003;70244;48.792;9.172;2023-10-19T17:48:39;44;42;
60374;PMS5003;70244;48.792;9.172;2023-10-19T17:51:09;45;40;
60374;PMS5003;70244;48.792;9.172;2023-10-19T17:53:40;48;43;
60374;PMS5003;70244;48.792;9.172;2023-10-19T17:56:10;38;35;
60374;PMS5003;70244;48.792;9.172;2023-10-19T17:58:41;35;33;
60374;PMS5003;70244;48.792;9.172;2023-10-19T18:01:11;42;39;
60374;PMS5003;70244;48.792;9.172;2023-10-19T18:03:41;39;37;
60374;PMS5003;70244;48.792;9.172;2023-10-19T18:06:13;44;39;
60374;PMS5003;70244;48.792;9.172;2023-10-19T18:08:42;36;35;
60374;PMS5003;70244;48.792;9.172;2023-10-19T18:11:14;41;39;
60374;PMS5003;70244;48.792;9.172;2023-10-19T18:13:44;42;40;
60374;PMS5003;70244;48.792;9.172;2023-10-19T18:16:15;36;35;
60374;PMS5003;70244;48.792;9.172;2023-10-19T18:18:45;40;35;
60374;PMS5003;70244;48.792;9.172;2023-10-19T18:21:16;41;36;
60374;PMS5003;70244;48.792;9.172;2023-10-19T18:23:46;37;36;
60374;PMS5003;70244;48.792;9.172;2023-10-19T18:26:17;35;35;
60374;PMS5003;70244;48.792;9.172;2023-10-19T18:28:48;36;35;
60374;PMS5003;70244;48.792;9.172;2023-10-19T18:31:18;35;33;
60374;PMS5003;70244;48.792;9.172;2023-10-19T18:33:49;33;30;
60374;PMS5003;70244;48.792;9.172;2023-10-19T18:36:19;38;35;
60374;PMS5003;70244;48.792;9.172;2023-10-19T18:38:49;38;33;
60374;PMS5003;70244;48.792;9.172;2023-10-19T18:41:20;40;39;
60374;PMS5003;70244;48.792;9.172;2023-10-19T18:43:50;34;32;
60374;PMS5003;70244;48.792;9.172;2023-10-19T18:46:21;34;34;
60374;PMS5003;70244;48.792;9.172;2023-10-19T18:48:51;33;31;
60374;PMS5003;70244;48.792;9.172;2023-10-19T18:51:21;36;32;
60374;PMS5003;70244;48.792;9.172;2023-10-19T18:53:52;33;33;
60374;PMS5003;70244;48.792;9.172;2023-10-19T18:56:24;34;31;
60374;PMS5003;70244;48.792;9.172;2023-10-19T18:58:52;32;32;
60374;PMS5003;70244;48.792;9.172;2023-10-19T19:01:23;38;34;
60374;PMS5003;70244;48.792;9.172;2023-10-19T19:03:53;35;34;
60374;PMS5003;70244;48.792;9.172;2023-10-19T19:06:24;40;39;
60374;PMS5003;70244;48.792;9.172;2023-10-19T19:08:55;33;31;
60374;PMS5003;70244;48.792;9.172;2023-10-19T19:11:25;33;32;
60374;PMS5003;70244;48.792;9.172;2023-10-19T19:13:56;34;31;
60374;PMS5003;70244;48.792;9.172;2023-10-19T19:16:26;30;30;
60374;PMS5003;70244;48.792;9.172;2023-10-19T19:18:57;31;30;
60374;PMS5003;70244;48.792;9.172;2023-10-19T19:21:27;36;32;
60374;PMS5003;70244;48.792;9.172;2023-10-19T19:23:57;33;29;
60374;PMS5003;70244;48.792;9.172;2023-10-19T19:26:27;32;32;
60374;PMS5003;70244;48.792;9.172;2023-10-19T19:28:58;34;29;
60374;PMS5003;70244;48.792;9.172;2023-10-19T19:31:28;32;30;
60374;PMS5003;70244;48.792;9.172;2023-10-19T19:33:59;37;32;
60374;PMS5003;70244;48.792;9.172;2023-10-19T19:36:30;39;34;
60374;PMS5003;70244;48.792;9.172;2023-10-19T19:39:00;35;32;
60374;PMS5003;70244;48.792;9.172;2023-10-19T19:41:30;33;33;
60374;PMS5003;70244;48.792;9.172;2023-10-19T19:44:01;34;30;
60374;PMS5003;70244;48.792;9.172;2023-10-19T19:46:31;35;32;
60374;PMS5003;70244;48.792;9.172;2023-10-19T19:49:02;35;31;
60374;PMS5003;70244;48.792;9.172;2023-10-19T19:51:32;30;27;
60374;PMS5003;70244;48.792;9.172;2023-10-19T19:54:03;28;26;
60374;PMS5003;70244;48.792;9.172;2023-10-19T19:56:34;33;33;
60374;PMS5003;70244;48.792;9.172;2023-10-19T19:59:04;37;33;
60374;PMS5003;70244;48.792;9.172;2023-10-19T20:01:34;33;30;
60374;PMS5003;70244;48.792;9.172;2023-10-19T20:04:05;32;31;
60374;PMS5003;70244;48.792;9.172;2023-10-19T20:06:35;33;31;
60374;PMS5003;70244;48.792;9.172;2023-10-19T20:09:06;27;27;
60374;PMS5003;70244;48.792;9.172;2023-10-19T20:11:37;32;31;
60374;PMS5003;70244;48.792;9.172;2023-10-19T20:14:06;31;30;
60374;PMS5003;70244;48.792;9.172;2023-10-19T20:16:37;36;30;
60374;PMS5003;70244;48.792;9.172;2023-10-19T20:19:07;32;27;
60374;PMS5003;70244;48.792;9.172;2023-10-19T20:21:37;37;30;
60374;PMS5003;70244;48.792;9.172;2023-10-19T20:24:08;27;27;
60374;PMS5003;70244;48.792;9.172;2023-10-19T20:26:38;31;28;
60374;PMS5003;70244;48.792;9.172;2023-10-19T20:29:08;27;26;
60374;PMS5003;70244;48.792;9.172;2023-10-19T20:31:39;29;27;
60374;PMS5003;70244;48.792;9.172;2023-10-19T20:34:10;35;35;
60374;PMS5003;70244;48.792;9.172;2023-10-19T20:36:41;34;30;
60374;PMS5003;70244;48.792;9.172;2023-10-19T20:39:11;36;34;
60374;PMS5003;70244;48.792;9.172;2023-10-19T20:41:42;30;26;
60374;PMS5003;70244;48.792;9.172;2023-10-19T20:44:12;30;28;
60374;PMS5003;70244;48.792;9.172;2023-10-19T20:46:42;32;28;
60374;PMS5003;70244;48.792;9.172;2023-10-19T20:49:13;29;29;
60374;PMS5003;70244;48.792;9.172;2023-10-19T20:51:43;34;30;
60374;PMS5003;70244;48.792;9.172;2023-10-19T20:54:13;31;28;
60374;PMS5003;70244;48.792;9.172;2023-10-19T20:56:43;32;30;
60374;PMS5003;70244;48.792;9.172;2023-10-19T20:59:14;34;31;
60374;PMS5003;70244;48.792;9.172;2023-10-19T21:01:44;29;27;
60374;PMS5003;70244;48.792;9.172;2023-10-19T21:04:14;31;31;
60374;PMS5003;70244;48.792;9.172;2023-10-19T21:06:44;29;29;
60374;PMS5003;70244;48.792;9.172;2023-10-19T21:09:15;28;25;
60374;PMS5003;70244;48.792;9.172;2023-10-19T21:11:46;30;26;